createdAt,value
2016-03-26T00:00:48.873Z,20
2016-03-26T00:01:47.157Z,20.1
2016-03-26T00:02:45.191Z,20.1
2016-03-26T00:03:43.475Z,20
2016-03-26T00:04:41.508Z,20
2016-03-26T00:05:39.809Z,20
2016-03-26T00:06:38.077Z,20
2016-03-26T00:07:36.361Z,20.1
2016-03-26T00:08:34.817Z,20.1
2016-03-26T00:09:35.725Z,20
2016-03-26T00:10:34.009Z,20.1
2016-03-26T00:11:32.294Z,20.1
2016-03-26T00:12:30.577Z,20
2016-03-26T00:13:28.971Z,20
2016-03-26T00:14:27.145Z,20.1
2016-03-26T00:15:25.429Z,20
2016-03-26T00:16:23.713Z,20
2016-03-26T00:17:21.997Z,20
2016-03-26T00:18:20.343Z,20
2016-03-26T00:19:21.362Z,20
2016-03-26T00:20:19.646Z,20
2016-03-26T00:21:17.929Z,20
2016-03-26T00:22:16.229Z,20
2016-03-26T00:23:14.622Z,20
2016-03-26T00:24:12.906Z,20
2016-03-26T00:25:11.081Z,20
2016-03-26T00:26:09.365Z,20
2016-03-26T00:27:07.649Z,20
2016-03-26T00:28:05.995Z,20
2016-03-26T00:29:07.139Z,20
2016-03-26T00:30:05.297Z,20
2016-03-26T00:31:03.706Z,20
2016-03-26T00:32:01.865Z,20
2016-03-26T00:33:00.164Z,20
2016-03-26T00:33:58.558Z,20
2016-03-26T00:34:56.733Z,20
2016-03-26T00:35:55.139Z,20
2016-03-26T00:36:53.298Z,20
2016-03-26T00:37:51.644Z,20
2016-03-26T00:38:52.679Z,20
2016-03-26T00:39:50.947Z,20
2016-03-26T00:40:49.230Z,20
2016-03-26T00:41:47.518Z,20
2016-03-26T00:42:45.803Z,20
2016-03-26T00:43:44.086Z,20
2016-03-26T00:44:42.370Z,20
2016-03-26T00:45:40.904Z,20
2016-03-26T00:46:39.454Z,20
2016-03-26T00:47:38.050Z,20
2016-03-26T00:48:39.069Z,20
2016-03-26T00:49:37.353Z,20
2016-03-26T00:50:35.886Z,20
2016-03-26T00:51:34.436Z,20
2016-03-26T00:52:32.969Z,20
2016-03-26T00:53:31.504Z,20
2016-03-26T00:54:30.053Z,20
2016-03-26T00:55:28.588Z,20
2016-03-26T00:56:27.246Z,20
2016-03-26T00:57:25.718Z,20
2016-03-26T00:58:26.736Z,20
2016-03-26T00:59:25.395Z,20
2016-03-26T01:00:23.819Z,20
2016-03-26T01:01:22.369Z,20
2016-03-26T01:02:20.888Z,20
2016-03-26T01:03:19.438Z,20
2016-03-26T01:04:17.971Z,20
2016-03-26T01:05:16.629Z,20
2016-03-26T01:06:15.163Z,20
2016-03-26T01:07:13.652Z,20
2016-03-26T01:08:14.669Z,20
2016-03-26T01:09:13.204Z,20
2016-03-26T01:10:11.738Z,20
2016-03-26T01:11:10.396Z,20
2016-03-26T01:12:08.931Z,20
2016-03-26T01:13:07.372Z,20
2016-03-26T01:14:05.921Z,20
2016-03-26T01:15:04.564Z,20
2016-03-26T01:16:03.099Z,20
2016-03-26T01:17:01.601Z,20
2016-03-26T01:18:02.712Z,20
2016-03-26T01:19:01.246Z,20
2016-03-26T01:19:59.668Z,20
2016-03-26T01:20:58.218Z,20
2016-03-26T01:21:56.768Z,20
2016-03-26T01:22:55.286Z,20
2016-03-26T01:23:53.835Z,20
2016-03-26T01:24:52.370Z,20
2016-03-26T01:25:50.903Z,20
2016-03-26T01:26:49.578Z,20
2016-03-26T01:27:50.534Z,20
2016-03-26T01:28:49.067Z,20
2016-03-26T01:29:47.601Z,20
2016-03-26T01:30:46.261Z,20
2016-03-26T01:31:44.686Z,20
2016-03-26T01:32:43.235Z,20
2016-03-26T01:33:41.752Z,20
2016-03-26T01:34:40.412Z,20
2016-03-26T01:35:38.836Z,20
2016-03-26T01:36:37.433Z,20
2016-03-26T01:37:38.560Z,20
2016-03-26T01:38:36.985Z,20
2016-03-26T01:39:35.519Z,20
2016-03-26T01:40:34.177Z,20
2016-03-26T01:41:32.728Z,20
2016-03-26T01:42:31.136Z,20
2016-03-26T01:43:29.796Z,20
2016-03-26T01:44:28.221Z,20
2016-03-26T01:45:26.880Z,20
2016-03-26T01:46:25.351Z,20
2016-03-26T01:47:26.368Z,20
2016-03-26T01:48:25.027Z,20
2016-03-26T01:49:23.452Z,20
2016-03-26T01:50:21.987Z,20
2016-03-26T01:51:20.645Z,20
2016-03-26T01:52:19.179Z,20
2016-03-26T01:53:17.604Z,20
2016-03-26T01:54:16.153Z,20
2016-03-26T01:55:14.703Z,20
2016-03-26T01:56:13.284Z,20
2016-03-26T01:57:14.411Z,20
2016-03-26T01:58:12.945Z,20
2016-03-26T01:59:11.369Z,20
2016-03-26T02:00:09.919Z,20
2016-03-26T02:01:08.579Z,20
2016-03-26T02:02:07.003Z,20
2016-03-26T02:04:04.071Z,20
2016-03-26T02:05:02.620Z,20
2016-03-26T02:06:01.214Z,20
2016-03-26T02:07:02.344Z,20
2016-03-26T02:08:00.766Z,20
2016-03-26T02:08:59.425Z,20
2016-03-26T02:09:57.834Z,20
2016-03-26T02:10:56.368Z,19.9
2016-03-26T02:11:54.918Z,19.9
2016-03-26T02:12:53.577Z,20
2016-03-26T02:13:52.002Z,20
2016-03-26T02:14:50.535Z,20
2016-03-26T02:15:49.132Z,20
2016-03-26T02:16:50.135Z,19.9
2016-03-26T02:17:48.685Z,20
2016-03-26T02:18:47.218Z,19.9
2016-03-26T02:19:45.768Z,20
2016-03-26T02:20:44.301Z,20
2016-03-26T02:21:42.835Z,20
2016-03-26T02:22:41.385Z,20
2016-03-26T02:23:39.934Z,19.9
2016-03-26T02:24:38.453Z,19.9
2016-03-26T02:25:37.048Z,20
2016-03-26T02:26:38.067Z,19.9
2016-03-26T02:27:36.617Z,20
2016-03-26T02:28:35.151Z,20
2016-03-26T02:29:33.685Z,20
2016-03-26T02:30:32.235Z,20
2016-03-26T02:31:30.768Z,20
2016-03-26T02:32:29.303Z,19.9
2016-03-26T02:33:27.852Z,20
2016-03-26T02:34:26.386Z,19.9
2016-03-26T02:35:25.107Z,20
2016-03-26T02:37:24.534Z,19.9
2016-03-26T02:38:23.068Z,20
2016-03-26T02:39:21.728Z,20
2016-03-26T02:40:20.261Z,20
2016-03-26T02:41:18.686Z,19.9
2016-03-26T02:42:17.594Z,19.9
2016-03-26T02:43:16.019Z,19.9
2016-03-26T02:44:14.553Z,19.9
2016-03-26T02:45:13.275Z,20
2016-03-26T02:46:14.168Z,19.9
2016-03-26T02:47:12.968Z,20
2016-03-26T02:48:11.518Z,20
2016-03-26T02:49:10.410Z,20
2016-03-26T02:50:09.101Z,20
2016-03-26T02:51:07.993Z,19.9
2016-03-26T02:52:06.669Z,19.9
2016-03-26T02:53:05.468Z,19.9
2016-03-26T02:54:04.265Z,20
2016-03-26T02:55:03.112Z,19.9
2016-03-26T02:56:04.240Z,19.9
2016-03-26T02:57:02.914Z,19.9
2016-03-26T02:58:01.713Z,20
2016-03-26T02:59:00.513Z,19.9
2016-03-26T02:59:59.297Z,19.9
2016-03-26T03:00:58.096Z,19.9
2016-03-26T03:01:56.912Z,19.9
2016-03-26T03:02:55.681Z,19.9
2016-03-26T03:03:54.464Z,19.9
2016-03-26T03:04:53.326Z,20
2016-03-26T03:05:54.329Z,19.9
2016-03-26T03:06:53.253Z,20
2016-03-26T03:07:51.912Z,19.9
2016-03-26T03:08:50.712Z,19.9
2016-03-26T03:09:49.620Z,19.9
2016-03-26T03:10:48.295Z,20
2016-03-26T03:11:47.110Z,20
2016-03-26T03:12:45.879Z,19.9
2016-03-26T03:13:44.788Z,19.9
2016-03-26T03:14:43.540Z,19.9
2016-03-26T03:15:44.543Z,19.9
2016-03-26T03:16:43.452Z,19.9
2016-03-26T03:17:42.127Z,19.9
2016-03-26T03:18:41.035Z,19.9
2016-03-26T03:19:39.710Z,19.9
2016-03-26T03:20:38.494Z,19.9
2016-03-26T03:21:37.402Z,19.9
2016-03-26T03:22:36.093Z,19.9
2016-03-26T03:23:34.877Z,19.9
2016-03-26T03:24:33.848Z,20
2016-03-26T03:25:34.742Z,19.9
2016-03-26T03:26:33.541Z,20
2016-03-26T03:27:32.450Z,19.9
2016-03-26T03:28:31.125Z,20
2016-03-26T03:29:29.924Z,20
2016-03-26T03:30:28.740Z,20
2016-03-26T03:31:27.508Z,19.9
2016-03-26T03:32:26.292Z,19.9
2016-03-26T03:33:25.091Z,19.9
2016-03-26T03:34:23.938Z,19.9
2016-03-26T03:35:24.957Z,19.9
2016-03-26T03:36:23.850Z,19.9
2016-03-26T03:37:22.650Z,19.9
2016-03-26T03:38:21.324Z,19.9
2016-03-26T03:39:20.233Z,19.9
2016-03-26T03:40:18.908Z,19.9
2016-03-26T03:41:17.707Z,19.9
2016-03-26T03:42:16.523Z,19.9
2016-03-26T03:43:15.291Z,19.9
2016-03-26T03:44:14.137Z,19.9
2016-03-26T03:45:15.155Z,19.9
2016-03-26T03:46:13.939Z,19.9
2016-03-26T03:47:12.738Z,19.9
2016-03-26T03:48:11.538Z,19.9
2016-03-26T03:49:10.319Z,19.9
2016-03-26T03:50:09.103Z,19.9
2016-03-26T03:51:07.919Z,19.9
2016-03-26T03:52:06.687Z,19.9
2016-03-26T03:53:05.627Z,19.9
2016-03-26T03:54:04.333Z,19.9
2016-03-26T03:55:05.351Z,19.9
2016-03-26T03:56:04.260Z,19.9
2016-03-26T03:57:03.044Z,19.9
2016-03-26T03:58:01.734Z,19.9
2016-03-26T03:59:00.535Z,19.9
2016-03-26T03:59:59.318Z,19.9
2016-03-26T04:00:58.226Z,19.9
2016-03-26T04:01:56.902Z,19.9
2016-03-26T04:02:55.685Z,19.9
2016-03-26T04:03:54.656Z,19.9
2016-03-26T04:04:55.550Z,19.9
2016-03-26T04:05:54.350Z,19.9
2016-03-26T04:06:53.133Z,19.9
2016-03-26T04:07:52.043Z,19.9
2016-03-26T04:08:50.733Z,19.9
2016-03-26T04:10:48.317Z,19.9
2016-03-26T04:11:47.100Z,19.9
2016-03-26T04:12:45.899Z,19.9
2016-03-26T04:13:44.856Z,19.9
2016-03-26T04:14:45.764Z,19.9
2016-03-26T04:15:44.548Z,19.9
2016-03-26T04:16:43.348Z,19.9
2016-03-26T04:17:42.257Z,19.9
2016-03-26T04:18:40.931Z,19.9
2016-03-26T04:19:39.841Z,19.9
2016-03-26T04:20:38.515Z,19.9
2016-03-26T04:21:37.314Z,19.9
2016-03-26T04:22:36.098Z,19.9
2016-03-26T04:23:34.945Z,19.9
2016-03-26T04:24:35.963Z,19.9
2016-03-26T04:25:34.763Z,19.9
2016-03-26T04:26:33.546Z,19.9
2016-03-26T04:27:32.346Z,19.9
2016-03-26T04:28:31.255Z,19.9
2016-03-26T04:29:29.929Z,19.9
2016-03-26T04:30:28.713Z,19.9
2016-03-26T04:31:27.513Z,19.9
2016-03-26T04:32:26.298Z,19.9
2016-03-26T04:33:25.268Z,19.9
2016-03-26T04:34:26.162Z,19.9
2016-03-26T04:35:25.071Z,19.9
2016-03-26T04:36:23.761Z,19.9
2016-03-26T04:37:22.545Z,19.9
2016-03-26T04:38:21.454Z,19.9
2016-03-26T04:39:20.237Z,19.9
2016-03-26T04:40:18.929Z,19.9
2016-03-26T04:41:17.712Z,19.9
2016-03-26T04:42:16.620Z,19.9
2016-03-26T04:43:15.358Z,19.9
2016-03-26T04:44:16.486Z,19.9
2016-03-26T04:45:15.160Z,19.9
2016-03-26T04:46:13.964Z,19.9
2016-03-26T04:47:12.748Z,19.9
2016-03-26T04:48:11.545Z,19.9
2016-03-26T04:49:10.328Z,19.9
2016-03-26T04:50:09.113Z,19.9
2016-03-26T04:51:08.178Z,19.9
2016-03-26T04:52:07.086Z,19.9
2016-03-26T04:53:05.809Z,19.9
2016-03-26T04:54:06.826Z,19.9
2016-03-26T04:55:05.610Z,19.9
2016-03-26T04:56:04.675Z,19.9
2016-03-26T04:57:03.459Z,19.9
2016-03-26T04:58:02.367Z,19.9
2016-03-26T04:59:01.043Z,19.9
2016-03-26T04:59:59.827Z,19.9
2016-03-26T05:00:58.610Z,19.9
2016-03-26T05:01:57.676Z,19.9
2016-03-26T05:03:57.650Z,19.9
2016-03-26T05:04:56.325Z,19.9
2016-03-26T05:05:55.124Z,19.9
2016-03-26T05:06:53.924Z,19.9
2016-03-26T05:07:52.724Z,19.9
2016-03-26T05:08:51.507Z,19.9
2016-03-26T05:09:50.400Z,19.9
2016-03-26T05:10:49.091Z,19.9
2016-03-26T05:11:47.875Z,19.9
2016-03-26T05:12:46.737Z,19.9
2016-03-26T05:13:47.740Z,19.9
2016-03-26T05:14:46.539Z,19.9
2016-03-26T05:15:45.323Z,19.9
2016-03-26T05:16:44.122Z,19.9
2016-03-26T05:17:43.031Z,19.9
2016-03-26T05:18:41.706Z,19.9
2016-03-26T05:19:40.615Z,19.9
2016-03-26T05:20:39.399Z,19.9
2016-03-26T05:21:38.073Z,19.9
2016-03-26T05:22:36.920Z,19.9
2016-03-26T05:23:37.938Z,19.9
2016-03-26T05:24:36.737Z,19.9
2016-03-26T05:25:35.522Z,19.9
2016-03-26T05:26:34.321Z,19.9
2016-03-26T05:27:33.105Z,19.9
2016-03-26T05:28:31.906Z,19.9
2016-03-26T05:29:30.704Z,19.9
2016-03-26T05:30:29.503Z,20
2016-03-26T05:31:28.289Z,19.9
2016-03-26T05:32:27.134Z,20
2016-03-26T05:33:28.261Z,19.9
2016-03-26T05:34:26.952Z,20
2016-03-26T05:35:25.736Z,19.9
2016-03-26T05:36:24.535Z,19.9
2016-03-26T05:37:23.320Z,19.9
2016-03-26T05:38:22.119Z,19.9
2016-03-26T05:39:20.903Z,19.9
2016-03-26T05:40:19.703Z,19.9
2016-03-26T05:41:18.502Z,19.9
2016-03-26T05:42:17.348Z,20
2016-03-26T05:43:18.352Z,19.9
2016-03-26T05:44:17.260Z,19.9
2016-03-26T05:45:15.951Z,19.9
2016-03-26T05:46:14.860Z,20
2016-03-26T05:47:13.643Z,19.9
2016-03-26T05:48:12.331Z,20
2016-03-26T05:49:11.115Z,20
2016-03-26T05:50:10.024Z,20
2016-03-26T05:51:08.823Z,20
2016-03-26T05:52:07.545Z,20
2016-03-26T05:53:08.684Z,20
2016-03-26T05:54:07.366Z,20
2016-03-26T05:55:06.152Z,20
2016-03-26T05:56:05.299Z,20
2016-03-26T05:57:03.742Z,20
2016-03-26T05:58:02.559Z,20
2016-03-26T05:59:01.436Z,20
2016-03-26T06:00:00.125Z,20
2016-03-26T06:00:58.894Z,20
2016-03-26T06:01:57.756Z,20
2016-03-26T06:02:58.869Z,20
2016-03-26T06:03:57.808Z,20
2016-03-26T06:04:56.608Z,20
2016-03-26T06:05:55.512Z,20
2016-03-26T06:06:54.162Z,20
2016-03-26T06:07:53.206Z,20
2016-03-26T06:08:52.248Z,20
2016-03-26T06:09:51.023Z,20
2016-03-26T06:10:50.068Z,20
2016-03-26T06:11:49.178Z,20
2016-03-26T06:12:50.192Z,20
2016-03-26T06:13:49.224Z,20
2016-03-26T06:14:48.379Z,20
2016-03-26T06:15:47.427Z,20
2016-03-26T06:16:46.365Z,20.1
2016-03-26T06:17:45.148Z,20
2016-03-26T06:18:44.213Z,20.1
2016-03-26T06:19:42.996Z,20
2016-03-26T06:20:42.045Z,20.1
2016-03-26T06:21:41.172Z,20.1
2016-03-26T06:22:42.158Z,20
2016-03-26T06:23:40.957Z,20.1
2016-03-26T06:24:39.756Z,20.1
2016-03-26T06:25:38.540Z,20.1
2016-03-26T06:26:37.450Z,20.1
2016-03-26T06:27:36.125Z,20.1
2016-03-26T06:28:34.924Z,20.1
2016-03-26T06:29:33.833Z,20.1
2016-03-26T06:30:32.507Z,20.1
2016-03-26T06:31:31.464Z,20.1
2016-03-26T06:32:32.372Z,20.1
2016-03-26T06:33:31.155Z,20.1
2016-03-26T06:34:29.955Z,20.1
2016-03-26T06:35:28.739Z,20.1
2016-03-26T06:36:27.649Z,20.2
2016-03-26T06:37:26.338Z,20.2
2016-03-26T06:38:25.232Z,20.2
2016-03-26T06:39:24.031Z,20.2
2016-03-26T06:40:22.705Z,20.2
2016-03-26T06:41:21.412Z,20.2
2016-03-26T06:42:22.321Z,20.2
2016-03-26T06:43:20.854Z,20.2
2016-03-26T06:44:19.389Z,20.3
2016-03-26T06:45:17.923Z,20.3
2016-03-26T06:46:16.456Z,20.3
2016-03-26T06:47:15.007Z,20.3
2016-03-26T06:48:13.647Z,20.3
2016-03-26T06:49:12.071Z,20.3
2016-03-26T06:50:10.604Z,20.3
2016-03-26T06:51:09.327Z,20.3
2016-03-26T06:52:10.220Z,20.4
2016-03-26T06:53:08.770Z,20.4
2016-03-26T06:54:07.303Z,20.4
2016-03-26T06:55:05.962Z,20.4
2016-03-26T06:56:04.387Z,20.4
2016-03-26T06:57:02.920Z,20.4
2016-03-26T06:58:01.455Z,20.4
2016-03-26T06:59:00.003Z,20.4
2016-03-26T06:59:58.539Z,20.4
2016-03-26T07:00:57.119Z,20.5
2016-03-26T07:01:58.137Z,20.5
2016-03-26T07:02:56.422Z,20.5
2016-03-26T07:03:54.736Z,20.5
2016-03-26T07:04:52.989Z,20.5
2016-03-26T07:05:51.273Z,20.5
2016-03-26T07:06:49.557Z,20.5
2016-03-26T07:07:47.841Z,20.5
2016-03-26T07:08:46.125Z,20.5
2016-03-26T07:09:44.409Z,20.5
2016-03-26T07:10:42.755Z,20.5
2016-03-26T07:11:43.773Z,20.5
2016-03-26T07:12:42.058Z,20.5
2016-03-26T07:13:40.326Z,20.5
2016-03-26T07:14:38.625Z,20.5
2016-03-26T07:15:36.910Z,20.5
2016-03-26T07:16:35.193Z,20.5
2016-03-26T07:17:33.337Z,20.5
2016-03-26T07:18:31.246Z,20.6
2016-03-26T07:19:29.654Z,20.6
2016-03-26T07:20:27.985Z,20.5
2016-03-26T07:21:28.879Z,20.6
2016-03-26T07:22:26.928Z,20.5
2016-03-26T07:23:24.946Z,20.5
2016-03-26T07:24:22.981Z,20.5
2016-03-26T07:25:21.015Z,20.5
2016-03-26T07:26:19.158Z,20.5
2016-03-26T07:27:17.081Z,20.6
2016-03-26T07:28:15.257Z,20.6
2016-03-26T07:29:13.132Z,20.6
2016-03-26T07:30:11.212Z,20.6
2016-03-26T07:31:12.230Z,20.6
2016-03-26T07:32:10.265Z,20.5
2016-03-26T07:33:08.299Z,20.5
2016-03-26T07:34:06.442Z,20.5
2016-03-26T07:35:04.351Z,20.6
2016-03-26T07:36:02.385Z,20.6
2016-03-26T07:37:00.419Z,20.5
2016-03-26T07:37:58.453Z,20.6
2016-03-26T07:38:56.486Z,20.6
2016-03-26T07:39:54.568Z,20.6
2016-03-26T07:40:55.586Z,20.7
2016-03-26T07:41:53.620Z,20.7
2016-03-26T07:42:51.654Z,20.6
2016-03-26T07:43:49.688Z,20.6
2016-03-26T07:44:47.707Z,20.6
2016-03-26T07:45:45.740Z,20.6
2016-03-26T07:46:43.773Z,20.5
2016-03-26T07:47:41.793Z,20.6
2016-03-26T07:48:39.826Z,20.6
2016-03-26T07:49:37.923Z,20.6
2016-03-26T07:50:39.051Z,20.6
2016-03-26T07:51:37.084Z,20.6
2016-03-26T07:52:34.993Z,20.6
2016-03-26T07:53:33.027Z,20.5
2016-03-26T07:54:31.061Z,20.6
2016-03-26T07:55:29.095Z,20.6
2016-03-26T07:56:27.129Z,20.5
2016-03-26T07:57:25.148Z,20.6
2016-03-26T07:58:23.182Z,20.5
2016-03-26T07:59:21.278Z,20.6
2016-03-26T08:00:22.406Z,20.6
2016-03-26T08:01:20.314Z,20.5
2016-03-26T08:02:18.347Z,20.6
2016-03-26T08:03:16.383Z,20.5
2016-03-26T08:04:14.414Z,20.6
2016-03-26T08:05:12.447Z,20.5
2016-03-26T08:06:10.481Z,20.5
2016-03-26T08:07:08.625Z,20.5
2016-03-26T08:08:06.658Z,20.6
2016-03-26T08:09:04.614Z,20.5
2016-03-26T08:10:05.633Z,20.6
2016-03-26T08:11:03.666Z,20.5
2016-03-26T08:12:01.700Z,20.5
2016-03-26T08:12:59.844Z,20.5
2016-03-26T08:13:57.768Z,20.5
2016-03-26T08:14:55.787Z,20.5
2016-03-26T08:15:53.821Z,20.5
2016-03-26T08:16:51.855Z,20.5
2016-03-26T08:17:49.748Z,20.5
2016-03-26T08:18:47.593Z,20.5
2016-03-26T08:19:48.582Z,20.6
2016-03-26T08:20:46.256Z,20.5
2016-03-26T08:21:44.024Z,20.6
2016-03-26T08:22:41.809Z,20.5
2016-03-26T08:23:39.576Z,20.6
2016-03-26T08:24:37.360Z,20.6
2016-03-26T08:25:35.145Z,20.6
2016-03-26T08:26:32.913Z,20.6
2016-03-26T08:27:30.697Z,20.6
2016-03-26T08:28:28.528Z,20.6
2016-03-26T08:29:29.546Z,20.6
2016-03-26T08:30:31.142Z,20.6
2016-03-26T08:31:32.692Z,20.6
2016-03-26T08:32:34.382Z,20.6
2016-03-26T08:33:35.853Z,20.6
2016-03-26T08:34:37.434Z,20.6
2016-03-26T08:35:39.014Z,20.6
2016-03-26T08:36:40.581Z,20.6
2016-03-26T08:37:42.161Z,20.6
2016-03-26T08:38:43.913Z,20.6
2016-03-26T08:39:44.808Z,20.6
2016-03-26T08:40:46.392Z,20.6
2016-03-26T08:41:47.973Z,20.6
2016-03-26T08:42:49.663Z,20.6
2016-03-26T08:43:51.134Z,20.5
2016-03-26T08:44:52.700Z,20.6
2016-03-26T08:45:54.280Z,20.5
2016-03-26T08:46:55.861Z,20.6
2016-03-26T08:47:57.442Z,20.6
2016-03-26T08:48:59.069Z,20.6
2016-03-26T08:50:00.104Z,20.5
2016-03-26T08:51:01.669Z,20.5
2016-03-26T08:52:03.359Z,20.5
2016-03-26T08:53:04.830Z,20.6
2016-03-26T08:54:06.395Z,20.5
2016-03-26T08:55:08.102Z,20.5
2016-03-26T08:56:09.572Z,20.5
2016-03-26T08:57:11.139Z,20.5
2016-03-26T08:58:12.844Z,20.6
2016-03-26T08:59:14.347Z,20.5
2016-03-26T09:00:15.366Z,20.6
2016-03-26T09:01:16.948Z,20.5
2016-03-26T09:02:18.529Z,20.6
2016-03-26T09:03:20.110Z,20.6
2016-03-26T09:04:21.691Z,20.6
2016-03-26T09:05:23.381Z,20.6
2016-03-26T09:06:24.962Z,20.6
2016-03-26T09:07:26.542Z,20.5
2016-03-26T09:08:28.015Z,20.5
2016-03-26T09:09:29.642Z,20.5
2016-03-26T09:10:30.770Z,20.5
2016-03-26T09:11:32.241Z,20.5
2016-03-26T09:12:33.821Z,20.5
2016-03-26T09:13:35.512Z,20.6
2016-03-26T09:14:36.983Z,20.6
2016-03-26T09:15:38.564Z,20.6
2016-03-26T09:16:40.145Z,20.5
2016-03-26T09:17:41.726Z,20.5
2016-03-26T09:18:43.306Z,20.5
2016-03-26T09:19:44.934Z,20.5
2016-03-26T09:20:45.953Z,20.5
2016-03-26T09:21:47.533Z,20.5
2016-03-26T09:22:49.114Z,20.5
2016-03-26T09:23:50.695Z,20.5
2016-03-26T09:24:52.275Z,20.5
2016-03-26T09:25:53.966Z,20.5
2016-03-26T09:26:55.547Z,20.5
2016-03-26T09:27:57.018Z,20.5
2016-03-26T09:28:58.599Z,20.5
2016-03-26T09:30:00.336Z,20.5
2016-03-26T09:31:01.244Z,20.5
2016-03-26T09:32:02.826Z,20.5
2016-03-26T09:33:04.516Z,20.5
2016-03-26T09:34:05.988Z,20.5
2016-03-26T09:35:07.568Z,20.5
2016-03-26T09:36:09.133Z,20.5
2016-03-26T09:37:10.715Z,20.5
2016-03-26T09:38:12.295Z,20.5
2016-03-26T09:39:13.876Z,20.5
2016-03-26T09:40:15.519Z,20.5
2016-03-26T09:41:16.537Z,20.5
2016-03-26T09:42:18.231Z,20.5
2016-03-26T09:43:19.811Z,20.5
2016-03-26T09:44:21.282Z,20.5
2016-03-26T09:45:22.847Z,20.5
2016-03-26T09:46:24.428Z,20.5
2016-03-26T09:47:26.025Z,20.5
2016-03-26T09:48:27.699Z,20.5
2016-03-26T09:49:29.155Z,20.5
2016-03-26T09:50:30.923Z,20.5
2016-03-26T09:51:31.817Z,20.5
2016-03-26T09:52:33.382Z,20.5
2016-03-26T09:53:34.963Z,20.5
2016-03-26T09:54:36.544Z,20.5
2016-03-26T09:55:38.234Z,20.5
2016-03-26T09:56:39.705Z,20.5
2016-03-26T09:57:41.286Z,20.5
2016-03-26T09:58:42.883Z,20.5
2016-03-26T09:59:44.432Z,20.5
2016-03-26T10:00:46.185Z,20.5
2016-03-26T10:01:47.094Z,20.5
2016-03-26T10:02:48.659Z,20.5
2016-03-26T10:03:50.241Z,20.5
2016-03-26T10:04:51.821Z,20.5
2016-03-26T10:05:53.510Z,20.5
2016-03-26T10:06:54.982Z,20.5
2016-03-26T10:07:56.673Z,20.5
2016-03-26T10:08:58.144Z,20.5
2016-03-26T10:09:59.709Z,20.5
2016-03-26T10:11:01.352Z,20.5
2016-03-26T10:12:02.354Z,20.5
2016-03-26T10:13:03.937Z,20.5
2016-03-26T10:14:05.517Z,20.5
2016-03-26T10:15:07.207Z,20.5
2016-03-26T10:16:08.679Z,20.5
2016-03-26T10:17:10.260Z,20.4
2016-03-26T10:18:11.840Z,20.5
2016-03-26T10:19:13.405Z,20.5
2016-03-26T10:20:14.986Z,20.5
2016-03-26T10:21:16.629Z,20.4
2016-03-26T10:22:17.648Z,20.5
2016-03-26T10:23:19.216Z,20.5
2016-03-26T10:24:20.922Z,20.5
2016-03-26T10:25:22.486Z,20.5
2016-03-26T10:26:23.974Z,20.4
2016-03-26T10:27:25.555Z,20.4
2016-03-26T10:28:27.245Z,20.4
2016-03-26T10:29:28.700Z,20.4
2016-03-26T10:30:30.281Z,20.4
2016-03-26T10:31:32.033Z,20.4
2016-03-26T10:32:32.943Z,20.4
2016-03-26T10:33:34.633Z,20.4
2016-03-26T10:34:36.089Z,20.4
2016-03-26T10:35:37.685Z,20.4
2016-03-26T10:36:39.376Z,20.4
2016-03-26T10:37:40.957Z,20.4
2016-03-26T10:38:42.412Z,20.4
2016-03-26T10:39:40.305Z,20.4
2016-03-26T10:40:37.980Z,20.4
2016-03-26T10:41:39.624Z,20.5
2016-03-26T10:42:40.740Z,20.4
2016-03-26T10:43:38.399Z,20.5
2016-03-26T10:44:36.183Z,20.4
2016-03-26T10:45:33.967Z,20.4
2016-03-26T10:46:31.845Z,20.4
2016-03-26T10:47:29.504Z,20.5
2016-03-26T10:48:27.287Z,20.4
2016-03-26T10:49:25.072Z,20.4
2016-03-26T10:50:22.855Z,20.4
2016-03-26T10:51:20.687Z,20.4
2016-03-26T10:53:19.598Z,20.4
2016-03-26T10:54:17.255Z,20.4
2016-03-26T10:55:15.147Z,20.4
2016-03-26T10:56:12.806Z,20.4
2016-03-26T10:57:10.575Z,20.5
2016-03-26T10:58:08.391Z,20.5
2016-03-26T10:59:06.143Z,20.4
2016-03-26T11:00:04.036Z,20.4
2016-03-26T11:01:01.757Z,20.4
2016-03-26T11:02:02.776Z,20.4
2016-03-26T11:03:00.669Z,20.4
2016-03-26T11:03:58.327Z,20.4
2016-03-26T11:04:56.112Z,20.4
2016-03-26T11:05:53.880Z,20.4
2016-03-26T11:06:51.665Z,20.4
2016-03-26T11:07:49.432Z,20.4
2016-03-26T11:08:47.216Z,20.4
2016-03-26T11:09:45.001Z,20.4
2016-03-26T11:10:42.941Z,20.4
2016-03-26T11:11:43.849Z,20.4
2016-03-26T11:12:41.618Z,20.4
2016-03-26T11:13:39.417Z,20.4
2016-03-26T11:14:37.295Z,20.5
2016-03-26T11:15:34.970Z,20.4
2016-03-26T11:16:32.754Z,20.5
2016-03-26T11:17:30.631Z,20.4
2016-03-26T11:18:28.290Z,20.4
2016-03-26T11:19:26.184Z,20.4
2016-03-26T11:20:23.905Z,20.5
2016-03-26T11:21:24.908Z,20.5
2016-03-26T11:22:22.708Z,20.4
2016-03-26T11:23:20.475Z,20.5
2016-03-26T11:24:22.056Z,20.4
2016-03-26T11:25:23.747Z,20.4
2016-03-26T11:26:25.327Z,20.4
2016-03-26T11:27:26.783Z,20.5
2016-03-26T11:28:28.364Z,20.4
2016-03-26T11:29:30.070Z,20.4
2016-03-26T11:30:31.588Z,20.4
2016-03-26T11:31:32.591Z,20.4
2016-03-26T11:32:34.171Z,20.5
2016-03-26T11:33:35.752Z,20.5
2016-03-26T11:34:37.333Z,20.5
2016-03-26T11:35:38.899Z,20.5
2016-03-26T11:36:40.604Z,20.5
2016-03-26T11:37:42.060Z,20.5
2016-03-26T11:38:43.640Z,20.5
2016-03-26T11:39:45.222Z,20.5
2016-03-26T11:40:46.849Z,20.5
2016-03-26T11:41:47.977Z,20.5
2016-03-26T11:42:49.573Z,20.4
2016-03-26T11:43:51.029Z,20.5
2016-03-26T11:44:52.719Z,20.5
2016-03-26T11:45:54.191Z,20.5
2016-03-26T11:46:55.772Z,20.5
2016-03-26T11:47:57.353Z,20.5
2016-03-26T11:48:58.933Z,20.4
2016-03-26T11:50:00.624Z,20.5
2016-03-26T11:51:02.142Z,20.5
2016-03-26T11:52:03.192Z,20.5
2016-03-26T11:53:04.741Z,20.5
2016-03-26T11:54:06.447Z,20.4
2016-03-26T11:55:07.918Z,20.5
2016-03-26T11:56:09.343Z,20.5
2016-03-26T11:57:10.564Z,20.5
2016-03-26T11:58:12.005Z,20.5
2016-03-26T11:59:13.210Z,20.5
2016-03-26T12:00:14.542Z,20.5
2016-03-26T12:01:16.060Z,20.5
2016-03-26T12:02:17.063Z,20.5
2016-03-26T12:03:18.377Z,20.5
2016-03-26T12:04:19.583Z,20.5
2016-03-26T12:05:20.916Z,20.5
2016-03-26T12:06:22.357Z,20.5
2016-03-26T12:07:23.579Z,20.5
2016-03-26T12:08:24.893Z,20.5
2016-03-26T12:09:26.224Z,20.5
2016-03-26T12:10:27.540Z,20.5
2016-03-26T12:11:29.043Z,20.5
2016-03-26T12:12:29.935Z,20.5
2016-03-26T12:13:31.390Z,20.5
2016-03-26T12:14:32.597Z,20.5
2016-03-26T12:15:33.928Z,20.5
2016-03-26T12:16:35.243Z,20.5
2016-03-26T12:17:36.574Z,20.5
2016-03-26T12:18:37.904Z,20.5
2016-03-26T12:19:39.345Z,20.5
2016-03-26T12:20:40.551Z,20.5
2016-03-26T12:21:41.929Z,20.5
2016-03-26T12:22:42.947Z,20.5
2016-03-26T12:23:44.278Z,20.5
2016-03-26T12:24:45.608Z,20.5
2016-03-26T12:25:46.923Z,20.5
2016-03-26T12:26:48.254Z,20.5
2016-03-26T12:27:49.586Z,20.5
2016-03-26T12:28:51.025Z,20.5
2016-03-26T12:29:52.231Z,20.5
2016-03-26T12:30:53.561Z,20.5
2016-03-26T12:31:55.050Z,20.5
2016-03-26T12:32:55.957Z,20.5
2016-03-26T12:33:57.289Z,20.5
2016-03-26T12:34:58.604Z,20.5
2016-03-26T12:36:00.060Z,20.5
2016-03-26T12:37:01.265Z,20.5
2016-03-26T12:38:02.706Z,20.5
2016-03-26T12:39:04.037Z,20.5
2016-03-26T12:40:05.243Z,20.5
2016-03-26T12:41:06.573Z,20.5
2016-03-26T12:42:07.951Z,20.5
2016-03-26T12:43:08.954Z,20.5
2016-03-26T12:44:10.066Z,20.5
2016-03-26T12:45:11.224Z,20.5
2016-03-26T12:46:12.446Z,20.5
2016-03-26T12:47:13.496Z,20.5
2016-03-26T12:48:14.576Z,20.5
2016-03-26T12:49:15.751Z,20.5
2016-03-26T12:50:16.832Z,20.5
2016-03-26T12:51:17.787Z,20.5
2016-03-26T12:52:19.025Z,20.5
2016-03-26T12:53:19.934Z,20.5
2016-03-26T12:54:20.998Z,20.5
2016-03-26T12:55:22.192Z,20.5
2016-03-26T12:56:23.147Z,20.5
2016-03-26T12:57:24.338Z,20.5
2016-03-26T12:58:25.294Z,20.5
2016-03-26T12:59:26.359Z,20.5
2016-03-26T13:00:27.440Z,20.5
2016-03-26T13:01:28.505Z,20.5
2016-03-26T13:02:29.632Z,20.5
2016-03-26T13:03:30.650Z,20.5
2016-03-26T13:04:31.716Z,20.5
2016-03-26T13:05:32.813Z,20.5
2016-03-26T13:06:33.863Z,20.5
2016-03-26T13:07:35.052Z,20.5
2016-03-26T13:08:36.008Z,20.5
2016-03-26T13:09:37.198Z,20.5
2016-03-26T13:10:38.155Z,20.5
2016-03-26T13:11:39.218Z,20.5
2016-03-26T13:12:40.347Z,20.5
2016-03-26T13:13:41.474Z,20.5
2016-03-26T13:14:42.446Z,20.5
2016-03-26T13:15:43.511Z,20.5
2016-03-26T13:16:44.576Z,20.5
2016-03-26T13:17:45.767Z,20.5
2016-03-26T13:18:46.723Z,20.5
2016-03-26T13:19:47.787Z,20.5
2016-03-26T13:20:48.868Z,20.5
2016-03-26T13:21:49.934Z,20.5
2016-03-26T13:22:51.061Z,20.5
2016-03-26T13:23:52.189Z,20.5
2016-03-26T13:24:53.145Z,20.5
2016-03-26T13:25:54.225Z,20.5
2016-03-26T13:26:55.306Z,20.4
2016-03-26T13:27:56.481Z,20.5
2016-03-26T13:28:57.437Z,20.5
2016-03-26T13:29:58.517Z,20.5
2016-03-26T13:30:59.583Z,20.5